Storden, Minnesota
Current Conditions -  °F | °C
As of 6:13 AM on Sunday 25 Jan 2015 (Local Time) from KMWM Reporting Station
Overcast Overcast  
Wind Chill: 19°   Ceiling: 500
Heat Index: 30°   Visibility: 10mi
Dew Point: 30°   Wind: 15mph
Humidity: 100%   Direction: 10°N
Pressure: 29.83"   Gusts: NA
Location:  44.04°N, 95.32°W
Report Text: KMWM 251213Z AUTO 01013KT 10SM BKN005 OVC010 M01/M01 A2983 RMK AO2
Loading
Personal Weather Stations






























Interactive Weather Map New forecast layout! Learn more

10-Day Weather Forecast

Advertisements
Track Severe Weather on mobile